createdAt,value
2022-08-16T00:02:33.305Z,19.26
2022-08-16T00:05:01.151Z,19.36
2022-08-16T00:07:29.804Z,19.43
2022-08-16T00:09:58.823Z,19.24
2022-08-16T00:12:28.247Z,19.37
2022-08-16T00:14:57.334Z,19.43
2022-08-16T00:17:26.419Z,19.63
2022-08-16T00:19:55.585Z,19.81
2022-08-16T00:22:25.139Z,19.83
2022-08-16T00:24:54.416Z,19.81
2022-08-16T00:27:22.424Z,19.78
2022-08-16T00:30:08.959Z,19.66
2022-08-16T00:32:38.692Z,19.69
2022-08-16T00:35:13.228Z,19.53
2022-08-16T00:37:56.981Z,19.56
2022-08-16T00:40:36.613Z,19.39
2022-08-16T00:43:12.213Z,19.19
2022-08-16T00:46:22.456Z,19.21
2022-08-16T00:48:57.659Z,19.27
2022-08-16T00:51:26.113Z,19.35
2022-08-16T00:53:56.713Z,19.53
2022-08-16T00:56:56.391Z,19.53
2022-08-16T00:59:16.379Z,19.57
2022-08-16T01:01:44.954Z,19.62
2022-08-16T01:04:28.967Z,19.66
2022-08-16T01:07:01.114Z,19.65
2022-08-16T01:09:34.404Z,19.62
2022-08-16T01:12:08.507Z,19.48
2022-08-16T01:14:41.256Z,19.53
2022-08-16T01:17:12.657Z,19.55
2022-08-16T01:19:44.575Z,19.50
2022-08-16T01:22:58.952Z,19.44
2022-08-16T01:25:22.207Z,19.43
2022-08-16T01:27:52.969Z,19.56
2022-08-16T01:30:26.404Z,19.59
2022-08-16T01:33:02.190Z,19.62
2022-08-16T01:36:01.933Z,19.65
2022-08-16T01:38:46.942Z,19.81
2022-08-16T01:41:22.277Z,19.69
2022-08-16T01:43:53.678Z,19.90
2022-08-16T01:46:37.366Z,19.54
2022-08-16T01:49:15.739Z,19.25
2022-08-16T01:51:50.644Z,19.26
2022-08-16T01:54:30.610Z,19.27
2022-08-16T01:56:59.194Z,19.37
2022-08-16T01:59:26.831Z,19.43
2022-08-16T02:01:59.680Z,19.42
2022-08-16T02:04:49.673Z,19.34
2022-08-16T02:07:18.694Z,19.30
2022-08-16T02:09:56.904Z,19.14
2022-08-16T02:12:50.763Z,19.17
2022-08-16T02:15:17.653Z,18.88
2022-08-16T02:17:58.260Z,18.87
2022-08-16T02:20:28.040Z,18.86
2022-08-16T02:22:57.446Z,18.65
2022-08-16T02:25:24.954Z,18.68
2022-08-16T02:28:11.629Z,18.74
2022-08-16T02:30:46.653Z,18.58
2022-08-16T02:33:17.968Z,18.72
2022-08-16T02:35:54.588Z,18.59
2022-08-16T02:38:28.423Z,18.59
2022-08-16T02:40:57.666Z,18.59
2022-08-16T02:43:29.079Z,18.61
2022-08-16T02:46:01.663Z,18.59
2022-08-16T02:48:31.119Z,18.56
2022-08-16T02:51:06.193Z,18.50
2022-08-16T02:53:40.265Z,18.52
2022-08-16T02:56:09.915Z,18.47
2022-08-16T02:58:38.520Z,18.42
2022-08-16T03:01:07.093Z,18.49
2022-08-16T03:04:29.816Z,18.32
2022-08-16T03:06:42.140Z,18.35
2022-08-16T03:09:34.361Z,18.38
2022-08-16T03:12:03.410Z,18.43
2022-08-16T03:14:30.838Z,18.19
2022-08-16T03:17:00.938Z,18.29
2022-08-16T03:19:46.882Z,18.20
2022-08-16T03:22:19.453Z,18.15
2022-08-16T03:24:57.293Z,18.18
2022-08-16T03:27:24.143Z,18.17
2022-08-16T03:29:54.760Z,18.08
2022-08-16T03:32:23.556Z,18.15
2022-08-16T03:34:52.956Z,17.98
2022-08-16T03:37:19.661Z,18.05
2022-08-16T03:39:47.055Z,18.15
2022-08-16T03:42:20.530Z,18.08
2022-08-16T03:44:49.977Z,18.13
2022-08-16T03:47:19.738Z,18.14
2022-08-16T03:49:51.796Z,18.11
2022-08-16T03:52:23.262Z,18.13
2022-08-16T03:54:58.106Z,18.26
2022-08-16T03:57:31.859Z,18.34
2022-08-16T04:00:35.275Z,18.28
2022-08-16T04:03:08.958Z,18.33
2022-08-16T04:05:46.657Z,18.36
2022-08-16T04:08:23.814Z,18.39
2022-08-16T04:10:55.857Z,18.41
2022-08-16T04:14:00.596Z,18.45
2022-08-16T04:16:26.575Z,18.46
2022-08-16T04:19:01.176Z,18.47
2022-08-16T04:21:35.112Z,18.49
2022-08-16T04:24:03.127Z,18.36
2022-08-16T04:26:32.396Z,18.54
2022-08-16T04:29:16.572Z,18.53
2022-08-16T04:31:55.634Z,18.66
2022-08-16T04:34:31.382Z,18.63
2022-08-16T04:37:01.534Z,18.60
2022-08-16T04:39:36.681Z,18.64
2022-08-16T04:42:13.900Z,18.73
2022-08-16T04:44:54.511Z,18.76
2022-08-16T04:47:31.438Z,18.83
2022-08-16T04:49:59.197Z,18.86
2022-08-16T04:52:33.430Z,18.81
2022-08-16T04:55:19.751Z,18.67
2022-08-16T04:57:53.514Z,18.72
2022-08-16T05:00:32.809Z,18.67
2022-08-16T05:03:13.554Z,18.57
2022-08-16T05:05:59.461Z,18.64
2022-08-16T05:08:32.974Z,18.39
2022-08-16T05:11:12.210Z,18.57
2022-08-16T05:13:44.822Z,18.80
2022-08-16T05:16:23.041Z,19.04
2022-08-16T05:18:59.564Z,19.02
2022-08-16T05:21:38.542Z,19.17
2022-08-16T05:24:09.171Z,19.13
2022-08-16T05:26:43.328Z,19.31
2022-08-16T05:29:16.917Z,19.27
2022-08-16T05:32:01.378Z,19.30
2022-08-16T05:34:28.861Z,19.40
2022-08-16T05:36:57.456Z,19.35
2022-08-16T05:39:33.549Z,19.44
2022-08-16T05:42:07.552Z,19.56
2022-08-16T05:44:36.534Z,19.46
2022-08-16T05:47:04.193Z,19.62
2022-08-16T05:49:38.347Z,19.75
2022-08-16T05:52:10.717Z,19.87
2022-08-16T05:54:46.676Z,19.91
2022-08-16T05:57:15.523Z,19.87
2022-08-16T05:59:42.356Z,20.03
2022-08-16T06:02:10.041Z,20.22
2022-08-16T06:04:37.928Z,20.34
2022-08-16T06:07:25.102Z,20.36
2022-08-16T06:10:32.310Z,20.39
2022-08-16T06:13:01.160Z,20.43
2022-08-16T06:15:28.090Z,20.65
2022-08-16T06:17:59.211Z,20.66
2022-08-16T06:20:36.008Z,20.80
2022-08-16T06:23:18.238Z,20.83
2022-08-16T06:26:07.378Z,20.98
2022-08-16T06:28:38.021Z,21.15
2022-08-16T06:31:13.702Z,21.23
2022-08-16T06:33:44.854Z,21.57
2022-08-16T06:36:15.242Z,21.69
2022-08-16T06:38:55.618Z,21.82
2022-08-16T06:41:43.973Z,21.97
2022-08-16T06:44:21.779Z,21.98
2022-08-16T06:46:55.833Z,22.29
2022-08-16T06:49:22.975Z,22.28
2022-08-16T06:51:50.760Z,22.50
2022-08-16T06:54:24.320Z,22.44
2022-08-16T06:56:54.047Z,22.40
2022-08-16T06:59:25.581Z,22.58
2022-08-16T07:01:58.194Z,22.73
2022-08-16T07:04:32.544Z,22.77
2022-08-16T07:07:15.240Z,23.41
2022-08-16T07:09:42.814Z,23.21
2022-08-16T07:12:09.589Z,23.29
2022-08-16T07:14:41.496Z,23.54
2022-08-16T07:17:18.331Z,23.66
2022-08-16T07:20:30.040Z,23.43
2022-08-16T07:22:52.406Z,23.36
2022-08-16T07:25:27.668Z,23.29
2022-08-16T07:27:55.016Z,23.06
2022-08-16T07:30:39.293Z,23.95
2022-08-16T07:33:51.160Z,23.62
2022-08-16T07:36:08.121Z,23.82
2022-08-16T07:38:42.529Z,24.26
2022-08-16T07:41:10.682Z,23.76
2022-08-16T07:43:43.289Z,24.25
2022-08-16T07:46:37.511Z,24.10
2022-08-16T07:49:02.046Z,24.12
2022-08-16T07:51:35.537Z,24.19
2022-08-16T07:54:10.112Z,24.27
2022-08-16T07:56:43.158Z,23.87
2022-08-16T07:59:10.313Z,24.11
2022-08-16T08:01:38.436Z,23.86
2022-08-16T08:04:07.740Z,24.58
2022-08-16T08:06:41.734Z,24.54
2022-08-16T08:09:15.206Z,24.72
2022-08-16T08:11:59.804Z,24.42
2022-08-16T08:14:34.229Z,24.61
2022-08-16T08:17:01.874Z,24.16
2022-08-16T08:19:31.223Z,24.92
2022-08-16T08:22:01.519Z,25.13
2022-08-16T08:24:43.868Z,24.71
2022-08-16T08:27:11.504Z,24.85
2022-08-16T08:29:40.620Z,25.17
2022-08-16T08:32:51.193Z,25.02
2022-08-16T08:35:04.741Z,25.28
2022-08-16T08:37:54.366Z,25.02
2022-08-16T08:40:27.187Z,25.63
2022-08-16T08:43:00.885Z,25.24
2022-08-16T08:45:52.513Z,25.67
2022-08-16T08:48:33.481Z,25.40
2022-08-16T08:51:17.234Z,25.83
2022-08-16T08:53:57.523Z,25.96
2022-08-16T08:56:26.515Z,25.55
2022-08-16T08:59:12.786Z,26.00
2022-08-16T09:01:56.899Z,26.19
2022-08-16T09:04:27.231Z,26.14
2022-08-16T09:06:55.995Z,25.96
2022-08-16T09:09:33.562Z,25.53
2022-08-16T09:12:06.505Z,26.24
2022-08-16T09:14:51.124Z,25.94
2022-08-16T09:20:14.394Z,26.67
2022-08-16T09:22:43.613Z,26.40
2022-08-16T09:25:23.053Z,26.31
2022-08-16T09:27:57.593Z,26.25
2022-08-16T09:30:34.486Z,26.92
2022-08-16T09:33:10.682Z,26.06
2022-08-16T09:35:38.967Z,26.62
2022-08-16T09:38:08.791Z,26.68
2022-08-16T09:40:43.358Z,27.05
2022-08-16T09:43:37.778Z,27.43
2022-08-16T09:46:00.603Z,26.62
2022-08-16T09:48:44.045Z,27.20
2022-08-16T09:51:13.285Z,27.25
2022-08-16T09:53:41.277Z,26.65
2022-08-16T09:56:39.079Z,27.26
2022-08-16T09:59:08.156Z,27.13
2022-08-16T10:01:43.468Z,28.04
2022-08-16T10:04:33.109Z,26.74
2022-08-16T10:09:44.974Z,27.46
2022-08-16T10:12:42.591Z,27.61
2022-08-16T10:15:17.110Z,26.56
2022-08-16T10:17:59.543Z,27.57
2022-08-16T10:20:29.594Z,27.78
2022-08-16T10:23:03.515Z,27.61
2022-08-16T10:27:16.892Z,27.69
2022-08-16T10:28:28.578Z,27.77
2022-08-16T10:30:59.065Z,27.73
2022-08-16T10:33:29.444Z,28.13
2022-08-16T10:36:02.559Z,28.13
2022-08-16T10:38:30.570Z,27.69
2022-08-16T10:41:00.520Z,27.93
2022-08-16T10:43:27.621Z,27.82
2022-08-16T10:46:00.705Z,27.92
2022-08-16T10:48:29.428Z,27.74
2022-08-16T10:50:59.309Z,27.16
2022-08-16T10:53:32.341Z,27.40
2022-08-16T10:56:03.079Z,26.98
2022-08-16T10:58:34.018Z,27.92
2022-08-16T11:01:24.955Z,27.80
2022-08-16T11:03:56.939Z,28.80
2022-08-16T11:06:26.854Z,28.62
2022-08-16T11:14:30.356Z,28.50
2022-08-16T11:17:02.605Z,28.52
2022-08-16T11:20:00.666Z,28.67
2022-08-16T11:22:42.256Z,28.37
2022-08-16T11:25:12.793Z,28.72
2022-08-16T11:27:43.177Z,27.76
2022-08-16T11:30:13.271Z,28.74
2022-08-16T11:32:46.844Z,28.77
2022-08-16T11:35:43.489Z,28.76
2022-08-16T11:38:46.978Z,28.14
2022-08-16T11:41:00.260Z,27.83
2022-08-16T11:43:29.703Z,28.94
2022-08-16T11:46:01.421Z,28.89
2022-08-16T11:48:48.376Z,28.82
2022-08-16T11:51:15.071Z,29.36
2022-08-16T11:53:41.831Z,28.34
2022-08-16T11:56:09.050Z,28.77
2022-08-16T11:58:39.485Z,28.81
2022-08-16T12:01:08.290Z,28.78
2022-08-16T12:03:37.625Z,28.41
2022-08-16T12:06:25.311Z,28.66
2022-08-16T12:09:01.043Z,28.34
2022-08-16T12:11:31.602Z,28.19
2022-08-16T12:14:04.945Z,29.07
2022-08-16T12:16:34.476Z,29.18
2022-08-16T12:19:04.553Z,29.29
2022-08-16T12:21:35.935Z,28.54
2022-08-16T12:24:20.044Z,29.31
2022-08-16T12:26:48.029Z,29.21
2022-08-16T12:29:15.892Z,29.00
2022-08-16T12:32:01.241Z,29.37
2022-08-16T12:34:29.619Z,29.10
2022-08-16T12:36:56.698Z,29.16
2022-08-16T12:39:23.835Z,29.35
2022-08-16T12:41:56.343Z,29.33
2022-08-16T12:44:26.384Z,29.35
2022-08-16T12:47:17.593Z,29.08
2022-08-16T12:49:44.342Z,28.93
2022-08-16T12:52:32.851Z,28.71
2022-08-16T12:55:00.531Z,29.10
2022-08-16T12:57:36.125Z,27.82
2022-08-16T13:00:12.833Z,28.99
2022-08-16T13:02:54.064Z,28.67
2022-08-16T13:05:20.854Z,28.70
2022-08-16T13:07:51.262Z,28.70
2022-08-16T13:10:21.025Z,28.97
2022-08-16T13:13:05.861Z,28.60
2022-08-16T13:15:36.237Z,28.07
2022-08-16T13:18:26.875Z,28.28
2022-08-16T13:21:00.182Z,28.46
2022-08-16T13:23:26.818Z,28.15
2022-08-16T13:25:54.858Z,28.65
2022-08-16T13:28:22.048Z,29.27
2022-08-16T13:30:54.959Z,28.56
2022-08-16T13:33:36.859Z,28.98
2022-08-16T13:36:16.732Z,29.27
2022-08-16T13:38:49.331Z,29.15
2022-08-16T13:41:16.189Z,29.13
2022-08-16T13:43:43.147Z,28.24
2022-08-16T13:46:09.915Z,28.98
2022-08-16T13:48:44.304Z,29.60
2022-08-16T13:51:17.146Z,29.12
2022-08-16T13:53:54.563Z,28.94
2022-08-16T13:56:25.898Z,28.61
2022-08-16T13:59:04.487Z,28.39
2022-08-16T14:01:33.087Z,28.88
2022-08-16T14:04:03.669Z,28.84
2022-08-16T14:06:31.199Z,28.89
2022-08-16T14:09:06.286Z,28.74
2022-08-16T14:11:34.872Z,28.87
2022-08-16T14:14:05.674Z,28.90
2022-08-16T14:16:34.889Z,29.35
2022-08-16T14:19:03.188Z,29.12
2022-08-16T14:21:35.398Z,29.17
2022-08-16T14:24:07.778Z,29.46
2022-08-16T14:26:48.901Z,29.41
2022-08-16T14:31:45.175Z,29.49
2022-08-16T14:34:11.939Z,29.10
2022-08-16T14:36:42.133Z,29.62
2022-08-16T14:39:09.078Z,28.94
2022-08-16T14:41:36.721Z,28.78
2022-08-16T14:44:06.811Z,28.87
2022-08-16T14:46:33.450Z,29.41
2022-08-16T14:49:01.756Z,28.34
2022-08-16T14:51:29.021Z,28.74
2022-08-16T14:53:56.819Z,29.22
2022-08-16T14:56:38.392Z,29.43
2022-08-16T14:59:11.113Z,29.32
2022-08-16T15:01:57.575Z,28.76
2022-08-16T15:04:39.203Z,29.39
2022-08-16T15:07:11.167Z,29.33
2022-08-16T15:09:43.885Z,29.19
2022-08-16T15:12:33.601Z,28.70
2022-08-16T15:15:12.623Z,28.64
2022-08-16T15:17:54.483Z,28.58
2022-08-16T15:20:26.908Z,28.94
2022-08-16T15:22:57.212Z,28.88
2022-08-16T15:25:29.682Z,29.09
2022-08-16T15:27:57.548Z,28.62
2022-08-16T15:30:57.747Z,28.66
2022-08-16T15:33:25.522Z,29.22
2022-08-16T15:35:55.303Z,28.68
2022-08-16T15:38:55.292Z,29.08
2022-08-16T15:41:28.595Z,28.86
2022-08-16T15:44:05.567Z,28.82
2022-08-16T15:46:56.924Z,28.63
2022-08-16T15:49:37.157Z,28.90
2022-08-16T15:52:20.539Z,29.08
2022-08-16T15:54:53.134Z,28.96
2022-08-16T15:57:23.207Z,28.77
2022-08-16T15:59:52.315Z,28.27
2022-08-16T16:02:29.836Z,28.49
2022-08-16T16:05:01.755Z,28.35
2022-08-16T16:07:30.509Z,28.24
2022-08-16T16:09:59.480Z,28.29
2022-08-16T16:15:18.393Z,28.41
2022-08-16T16:17:50.836Z,28.27
2022-08-16T16:20:21.410Z,28.90
2022-08-16T16:22:49.972Z,28.36
2022-08-16T16:25:17.230Z,28.19
2022-08-16T16:27:45.298Z,27.78
2022-08-16T16:30:33.271Z,27.98
2022-08-16T16:33:01.035Z,27.87
2022-08-16T16:35:32.523Z,28.61
2022-08-16T16:37:59.957Z,28.33
2022-08-16T16:40:32.132Z,28.85
2022-08-16T16:43:00.437Z,28.50
2022-08-16T16:45:34.723Z,28.74
2022-08-16T16:48:12.648Z,28.26
2022-08-16T16:50:45.415Z,27.96
2022-08-16T16:53:17.089Z,27.84
2022-08-16T16:55:47.658Z,27.64
2022-08-16T16:58:40.468Z,27.83
2022-08-16T17:01:10.748Z,28.30
2022-08-16T17:03:38.551Z,28.05
2022-08-16T17:06:09.144Z,27.65
2022-08-16T17:08:41.531Z,27.77
2022-08-16T17:11:09.992Z,28.13
2022-08-16T17:13:38.576Z,27.62
2022-08-16T17:16:05.521Z,27.05
2022-08-16T17:19:14.725Z,26.83
2022-08-16T17:21:20.261Z,26.48
2022-08-16T17:23:59.283Z,26.36
2022-08-16T17:26:29.521Z,26.31
2022-08-16T17:29:02.211Z,26.07
2022-08-16T17:31:38.291Z,25.78
2022-08-16T17:34:28.542Z,25.58
2022-08-16T17:36:54.648Z,25.54
2022-08-16T17:39:21.600Z,25.26
2022-08-16T17:41:51.101Z,25.01
2022-08-16T17:44:19.284Z,24.94
2022-08-16T17:46:51.226Z,24.79
2022-08-16T17:49:19.578Z,24.57
2022-08-16T17:51:46.449Z,24.47
2022-08-16T17:54:18.809Z,24.28
2022-08-16T17:57:00.768Z,24.15
2022-08-16T17:59:28.210Z,24.09
2022-08-16T18:01:55.715Z,23.97
2022-08-16T18:04:48.383Z,23.75
2022-08-16T18:07:10.221Z,23.67
2022-08-16T18:09:41.020Z,23.57
2022-08-16T18:12:44.685Z,23.49
2022-08-16T18:15:07.445Z,23.47
2022-08-16T18:17:34.358Z,23.39
2022-08-16T18:20:01.003Z,23.33
2022-08-16T18:22:30.817Z,23.37
2022-08-16T18:24:58.395Z,23.27
2022-08-16T18:27:27.234Z,23.16
2022-08-16T18:29:54.902Z,23.18
2022-08-16T18:32:24.235Z,23.00
2022-08-16T18:34:52.889Z,22.84
2022-08-16T18:37:22.245Z,22.85
2022-08-16T18:39:49.025Z,22.76
2022-08-16T18:42:15.770Z,22.74
2022-08-16T18:44:43.816Z,22.66
2022-08-16T18:47:10.571Z,22.56
2022-08-16T18:49:37.529Z,22.65
2022-08-16T18:52:04.674Z,22.64
2022-08-16T18:54:33.346Z,22.52
2022-08-16T18:57:02.415Z,22.48
2022-08-16T18:59:33.219Z,22.64
2022-08-16T19:02:04.748Z,22.71
2022-08-16T19:04:55.122Z,22.83
2022-08-16T19:07:21.230Z,22.69
2022-08-16T19:09:47.907Z,22.81
2022-08-16T19:12:15.980Z,22.64
2022-08-16T19:14:45.346Z,22.67
2022-08-16T19:17:12.192Z,22.63
2022-08-16T19:19:38.999Z,22.55
2022-08-16T19:22:06.533Z,22.68
2022-08-16T19:24:33.236Z,22.60
2022-08-16T19:27:01.627Z,22.57
2022-08-16T19:29:28.996Z,22.60
2022-08-16T19:31:55.722Z,22.72
2022-08-16T19:34:22.388Z,22.61
2022-08-16T19:36:49.039Z,22.63
2022-08-16T19:39:17.540Z,22.65
2022-08-16T19:41:52.965Z,22.62
2022-08-16T19:44:24.337Z,22.57
2022-08-16T19:46:51.553Z,22.50
2022-08-16T19:49:18.200Z,22.39
2022-08-16T19:51:46.383Z,22.41
2022-08-16T19:54:13.144Z,22.34
2022-08-16T19:56:39.812Z,22.31
2022-08-16T19:59:39.453Z,22.33
2022-08-16T20:01:53.368Z,22.37
2022-08-16T20:04:22.088Z,22.29
2022-08-16T20:06:49.406Z,22.12
2022-08-16T20:09:16.306Z,22.07
2022-08-16T20:11:47.565Z,21.97
2022-08-16T20:14:19.260Z,21.93
2022-08-16T20:16:52.507Z,21.90
2022-08-16T20:19:19.583Z,21.89
2022-08-16T20:21:46.340Z,21.94
2022-08-16T20:24:32.728Z,21.98
2022-08-16T20:26:59.843Z,21.94
2022-08-16T20:29:27.911Z,22.00
2022-08-16T20:31:54.742Z,21.89
2022-08-16T20:34:21.455Z,21.92
2022-08-16T20:36:48.126Z,21.94
2022-08-16T20:39:15.015Z,21.86
2022-08-16T20:41:42.166Z,21.85
2022-08-16T20:44:10.431Z,21.80
2022-08-16T20:46:39.058Z,21.88
2022-08-16T20:49:09.165Z,21.95
2022-08-16T20:51:49.727Z,21.89
2022-08-16T20:54:18.363Z,21.92
2022-08-16T20:56:45.105Z,21.97
2022-08-16T20:59:11.766Z,22.01
2022-08-16T21:01:46.713Z,21.94
2022-08-16T21:04:18.708Z,21.89
2022-08-16T21:06:54.029Z,21.86
2022-08-16T21:09:32.505Z,21.94
2022-08-16T21:12:02.049Z,21.83
2022-08-16T21:14:32.431Z,21.83
2022-08-16T21:16:59.517Z,21.76
2022-08-16T21:19:27.237Z,21.79
2022-08-16T21:21:54.255Z,21.74
2022-08-16T21:24:20.920Z,21.74
2022-08-16T21:26:53.857Z,21.71
2022-08-16T21:29:22.807Z,21.67
2022-08-16T21:31:51.718Z,21.62
2022-08-16T21:34:18.415Z,21.60
2022-08-16T21:36:45.247Z,21.62
2022-08-16T21:39:11.924Z,21.53
2022-08-16T21:41:38.768Z,21.51
2022-08-16T21:44:05.808Z,21.54
2022-08-16T21:46:33.937Z,21.49
2022-08-16T21:49:00.735Z,21.41
2022-08-16T21:51:27.379Z,21.44
2022-08-16T21:53:54.199Z,21.31
2022-08-16T21:56:21.007Z,21.36
2022-08-16T21:58:47.893Z,21.28
2022-08-16T22:01:22.999Z,21.25
2022-08-16T22:04:11.349Z,21.15
2022-08-16T22:06:38.733Z,21.07
2022-08-16T22:09:07.329Z,21.08
2022-08-16T22:11:34.399Z,21.04
2022-08-16T22:14:01.127Z,21.03
2022-08-16T22:16:30.991Z,21.02
2022-08-16T22:18:57.667Z,20.89
2022-08-16T22:21:24.679Z,20.89
2022-08-16T22:23:56.981Z,20.84
2022-08-16T22:26:31.519Z,20.78
2022-08-16T22:29:01.526Z,20.76
2022-08-16T22:31:29.108Z,20.80
2022-08-16T22:33:56.821Z,20.73
2022-08-16T22:36:23.972Z,20.84
2022-08-16T22:38:57.941Z,20.84
2022-08-16T22:41:26.912Z,20.70
2022-08-16T22:43:53.593Z,20.73
2022-08-16T22:46:20.811Z,20.78
2022-08-16T22:48:50.260Z,20.82
2022-08-16T22:51:18.743Z,20.79
2022-08-16T22:53:45.716Z,20.82
2022-08-16T22:56:12.476Z,20.84
2022-08-16T22:58:39.582Z,20.90
2022-08-16T23:01:08.141Z,20.86
2022-08-16T23:03:36.195Z,20.80
2022-08-16T23:06:04.241Z,20.75
2022-08-16T23:08:39.075Z,20.72
2022-08-16T23:11:12.067Z,20.72
2022-08-16T23:13:50.090Z,20.67
2022-08-16T23:16:32.443Z,20.55
2022-08-16T23:19:06.716Z,20.49
2022-08-16T23:21:34.470Z,20.53
2022-08-16T23:24:01.394Z,20.55
2022-08-16T23:26:44.722Z,20.65
2022-08-16T23:29:22.504Z,20.66
2022-08-16T23:31:59.046Z,20.50
2022-08-16T23:34:27.895Z,20.55
2022-08-16T23:36:55.195Z,20.51
2022-08-16T23:39:22.189Z,20.46
2022-08-16T23:41:48.942Z,20.53
2022-08-16T23:44:55.769Z,20.48
2022-08-16T23:47:02.291Z,20.55
2022-08-16T23:49:59.063Z,20.61
2022-08-16T23:52:17.891Z,20.49
2022-08-16T23:54:44.527Z,20.54
2022-08-16T23:57:11.237Z,20.43
2022-08-16T23:59:52.705Z,20.45
